createdAt,value
2022-11-20T00:00:23.136Z,999.72
2022-11-20T00:01:23.139Z,999.74
2022-11-20T00:02:23.162Z,999.69
2022-11-20T00:03:23.417Z,999.67
2022-11-20T00:04:23.098Z,999.70
2022-11-20T00:05:23.086Z,999.68
2022-11-20T00:06:23.069Z,999.68
2022-11-20T00:07:23.106Z,999.66
2022-11-20T00:08:23.013Z,999.65
2022-11-20T00:09:23.661Z,999.63
2022-11-20T00:10:22.989Z,999.65
2022-11-20T00:11:23.004Z,999.66
2022-11-20T00:12:22.996Z,999.66
2022-11-20T00:13:22.973Z,999.67
2022-11-20T00:14:23.205Z,999.68
2022-11-20T00:15:22.948Z,999.63
2022-11-20T00:16:22.946Z,999.64
2022-11-20T00:17:22.979Z,999.57
2022-11-20T00:18:22.902Z,999.58
2022-11-20T00:19:23.402Z,999.58
2022-11-20T00:20:22.871Z,999.58
2022-11-20T00:21:22.871Z,999.58
2022-11-20T00:22:22.877Z,999.59
2022-11-20T00:23:23.189Z,999.61
2022-11-20T00:24:22.844Z,999.60
2022-11-20T00:25:22.858Z,999.63
2022-11-20T00:26:22.811Z,999.57
2022-11-20T00:27:22.811Z,999.59
2022-11-20T00:28:22.824Z,999.56
2022-11-20T00:29:23.272Z,999.56
2022-11-20T00:30:22.830Z,999.60
2022-11-20T00:31:22.840Z,999.58
2022-11-20T00:32:22.812Z,999.64
2022-11-20T00:33:22.779Z,999.69
2022-11-20T00:34:22.759Z,999.59
2022-11-20T00:35:22.721Z,999.60
2022-11-20T00:36:22.748Z,999.58
2022-11-20T00:37:23.045Z,999.54
2022-11-20T00:38:22.765Z,999.60
2022-11-20T00:39:23.431Z,999.57
2022-11-20T00:40:22.688Z,999.60
2022-11-20T00:41:22.695Z,999.63
2022-11-20T00:42:22.652Z,999.61
2022-11-20T00:43:22.656Z,999.60
2022-11-20T00:44:22.889Z,999.65
2022-11-20T00:45:22.639Z,999.58
2022-11-20T00:46:22.595Z,999.60
2022-11-20T00:47:22.583Z,999.62
2022-11-20T00:48:22.589Z,999.65
2022-11-20T00:49:22.833Z,999.66
2022-11-20T00:50:22.533Z,999.65
2022-11-20T00:51:22.545Z,999.71
2022-11-20T00:52:22.523Z,999.68
2022-11-20T00:53:22.541Z,999.71
2022-11-20T00:54:22.503Z,999.66
2022-11-20T00:55:22.862Z,999.65
2022-11-20T00:56:22.489Z,999.63
2022-11-20T00:57:22.476Z,999.66
2022-11-20T00:58:22.468Z,999.67
2022-11-20T00:59:22.653Z,999.63
2022-11-20T01:00:22.451Z,999.61
2022-11-20T01:01:22.505Z,999.64
2022-11-20T01:02:22.396Z,999.66
2022-11-20T01:03:26.776Z,999.68
2022-11-20T01:04:22.381Z,999.67
2022-11-20T01:05:22.374Z,999.61
2022-11-20T01:06:22.402Z,999.59
2022-11-20T01:07:22.428Z,999.56
2022-11-20T01:08:22.486Z,999.56
2022-11-20T01:09:22.573Z,999.58
2022-11-20T01:10:22.663Z,999.59
2022-11-20T01:11:22.350Z,999.53
2022-11-20T01:12:22.310Z,999.51
2022-11-20T01:13:25.681Z,999.52
2022-11-20T01:14:22.253Z,999.51
2022-11-20T01:15:22.282Z,999.51
2022-11-20T01:16:22.266Z,999.49
2022-11-20T01:17:22.279Z,999.49
2022-11-20T01:18:22.355Z,999.46
2022-11-20T01:19:22.443Z,999.50
2022-11-20T01:20:22.213Z,999.43
2022-11-20T01:21:22.196Z,999.45
2022-11-20T01:22:22.158Z,999.43
2022-11-20T01:23:22.214Z,999.45
2022-11-20T01:24:22.178Z,999.46
2022-11-20T01:25:22.146Z,999.40
2022-11-20T01:26:22.141Z,999.46
2022-11-20T01:27:22.135Z,999.49
2022-11-20T01:28:22.115Z,999.46
2022-11-20T01:29:22.305Z,999.44
2022-11-20T01:30:22.081Z,999.46
2022-11-20T01:31:22.118Z,999.44
2022-11-20T01:32:22.057Z,999.42
2022-11-20T01:33:22.065Z,999.43
2022-11-20T01:34:22.053Z,999.39
2022-11-20T01:35:22.076Z,999.35
2022-11-20T01:36:22.064Z,999.37
2022-11-20T01:37:22.009Z,999.36
2022-11-20T01:38:22.013Z,999.35
2022-11-20T01:39:22.206Z,999.31
2022-11-20T01:40:21.977Z,999.28
2022-11-20T01:41:21.983Z,999.36
2022-11-20T01:42:21.966Z,999.30
2022-11-20T01:43:21.979Z,999.33
2022-11-20T01:44:21.934Z,999.33
2022-11-20T01:45:21.935Z,999.30
2022-11-20T01:46:21.934Z,999.32
2022-11-20T01:47:21.914Z,999.29
2022-11-20T01:48:21.866Z,999.25
2022-11-20T01:49:22.118Z,999.19
2022-11-20T01:50:21.875Z,999.14
2022-11-20T01:51:21.849Z,999.13
2022-11-20T01:52:21.863Z,999.09
2022-11-20T01:53:21.845Z,999.12
2022-11-20T01:54:21.824Z,999.11
2022-11-20T01:55:21.795Z,999.05
2022-11-20T01:56:21.814Z,999.06
2022-11-20T01:57:21.779Z,999.02
2022-11-20T01:58:21.785Z,999.03
2022-11-20T01:59:22.189Z,999.04
2022-11-20T02:00:21.745Z,999.01
2022-11-20T02:01:21.735Z,999.03
2022-11-20T02:02:21.936Z,999.03
2022-11-20T02:03:21.716Z,999.00
2022-11-20T02:04:21.724Z,999.05
2022-11-20T02:05:21.698Z,999.01
2022-11-20T02:06:21.670Z,999.01
2022-11-20T02:07:21.712Z,999.04
2022-11-20T02:08:21.696Z,999.03
2022-11-20T02:09:21.778Z,999.03
2022-11-20T02:10:21.664Z,999.02
2022-11-20T02:11:21.626Z,999.06
2022-11-20T02:12:21.620Z,999.05
2022-11-20T02:13:21.607Z,999.13
2022-11-20T02:14:21.606Z,999.07
2022-11-20T02:15:25.079Z,999.08
2022-11-20T02:16:22.564Z,999.11
2022-11-20T02:17:21.840Z,999.12
2022-11-20T02:18:21.556Z,999.14
2022-11-20T02:19:21.760Z,999.14
2022-11-20T02:20:21.537Z,999.18
2022-11-20T02:21:21.481Z,999.12
2022-11-20T02:22:21.517Z,999.17
2022-11-20T02:23:21.662Z,999.12
2022-11-20T02:24:21.583Z,999.15
2022-11-20T02:25:21.440Z,999.08
2022-11-20T02:26:21.469Z,999.11
2022-11-20T02:27:21.439Z,999.10
2022-11-20T02:28:21.441Z,999.05
2022-11-20T02:29:22.022Z,999.00
2022-11-20T02:30:21.420Z,998.95
2022-11-20T02:31:21.582Z,998.97
2022-11-20T02:32:21.399Z,998.97
2022-11-20T02:33:21.350Z,998.96
2022-11-20T02:34:21.353Z,998.99
2022-11-20T02:35:21.630Z,998.93
2022-11-20T02:36:21.342Z,998.95
2022-11-20T02:37:21.339Z,998.99
2022-11-20T02:38:21.357Z,998.94
2022-11-20T02:39:21.905Z,998.96
2022-11-20T02:40:21.320Z,998.94
2022-11-20T02:41:21.369Z,998.93
2022-11-20T02:42:21.287Z,999.02
2022-11-20T02:43:21.263Z,999.01
2022-11-20T02:44:21.260Z,999.02
2022-11-20T02:45:21.460Z,999.04
2022-11-20T02:46:21.240Z,999.03
2022-11-20T02:47:21.193Z,999.01
2022-11-20T02:48:21.192Z,998.92
2022-11-20T02:49:21.638Z,998.86
2022-11-20T02:50:21.422Z,998.85
2022-11-20T02:51:21.145Z,998.81
2022-11-20T02:52:21.170Z,998.82
2022-11-20T02:53:21.160Z,998.81
2022-11-20T02:54:21.148Z,998.82
2022-11-20T02:55:21.120Z,998.85
2022-11-20T02:56:21.213Z,998.83
2022-11-20T02:57:21.112Z,998.83
2022-11-20T02:58:21.064Z,998.85
2022-11-20T02:59:21.249Z,998.81
2022-11-20T03:00:21.272Z,998.80
2022-11-20T03:01:21.105Z,998.73
2022-11-20T03:02:21.015Z,998.76
2022-11-20T03:03:21.050Z,998.78
2022-11-20T03:04:21.002Z,998.75
2022-11-20T03:05:21.342Z,998.79
2022-11-20T03:06:21.009Z,998.80
2022-11-20T03:07:20.987Z,998.81
2022-11-20T03:08:20.981Z,998.81
2022-11-20T03:09:27.970Z,998.78
2022-11-20T03:10:20.956Z,998.75
2022-11-20T03:11:21.172Z,998.73
2022-11-20T03:12:21.196Z,998.72
2022-11-20T03:13:20.918Z,998.73
2022-11-20T03:14:20.908Z,998.76
2022-11-20T03:15:20.881Z,998.78
2022-11-20T03:16:20.861Z,998.80
2022-11-20T03:17:20.862Z,998.77
2022-11-20T03:18:21.101Z,998.79
2022-11-20T03:19:21.331Z,998.77
2022-11-20T03:20:20.812Z,998.73
2022-11-20T03:21:20.853Z,998.76
2022-11-20T03:22:21.100Z,998.71
2022-11-20T03:23:20.819Z,998.73
2022-11-20T03:24:20.796Z,998.68
2022-11-20T03:25:20.797Z,998.69
2022-11-20T03:26:20.752Z,998.71
2022-11-20T03:27:20.755Z,998.69
2022-11-20T03:28:20.967Z,998.67
2022-11-20T03:29:21.071Z,998.72
2022-11-20T03:30:20.727Z,998.72
2022-11-20T03:31:20.738Z,998.69
2022-11-20T03:32:20.955Z,998.68
2022-11-20T03:33:20.708Z,998.69
2022-11-20T03:34:21.009Z,998.68
2022-11-20T03:35:20.654Z,998.67
2022-11-20T03:36:20.661Z,998.70
2022-11-20T03:37:20.631Z,998.62
2022-11-20T03:38:20.638Z,998.60
2022-11-20T03:39:21.317Z,998.60
2022-11-20T03:40:20.618Z,998.63
2022-11-20T03:41:20.619Z,998.62
2022-11-20T03:42:20.565Z,998.61
2022-11-20T03:43:20.589Z,998.59
2022-11-20T03:44:20.570Z,998.66
2022-11-20T03:45:20.868Z,998.63
2022-11-20T03:46:20.552Z,998.60
2022-11-20T03:47:20.534Z,998.62
2022-11-20T03:48:20.790Z,998.63
2022-11-20T03:49:20.729Z,998.60
2022-11-20T03:50:20.484Z,998.55
2022-11-20T03:51:20.482Z,998.57
2022-11-20T03:52:20.480Z,998.60
2022-11-20T03:53:20.479Z,998.56
2022-11-20T03:54:20.674Z,998.52
2022-11-20T03:55:20.456Z,998.51
2022-11-20T03:56:20.404Z,998.53
2022-11-20T03:57:20.441Z,998.54
2022-11-20T03:58:20.419Z,998.55
2022-11-20T03:59:20.685Z,998.51
2022-11-20T04:00:20.682Z,998.54
2022-11-20T04:01:20.476Z,998.54
2022-11-20T04:02:20.396Z,998.50
2022-11-20T04:03:20.342Z,998.51
2022-11-20T04:04:20.319Z,998.55
2022-11-20T04:05:20.352Z,998.48
2022-11-20T04:06:20.555Z,998.43
2022-11-20T04:07:20.338Z,998.40
2022-11-20T04:08:20.276Z,998.41
2022-11-20T04:09:20.552Z,998.41
2022-11-20T04:10:20.254Z,998.45
2022-11-20T04:11:20.292Z,998.44
2022-11-20T04:12:20.226Z,998.45
2022-11-20T04:13:20.232Z,998.43
2022-11-20T04:14:20.230Z,998.42
2022-11-20T04:15:20.206Z,998.41
2022-11-20T04:16:20.196Z,998.42
2022-11-20T04:17:20.184Z,998.42
2022-11-20T04:18:20.168Z,998.39
2022-11-20T04:19:20.640Z,998.36
2022-11-20T04:20:20.163Z,998.34
2022-11-20T04:21:20.479Z,998.36
2022-11-20T04:22:20.167Z,998.37
2022-11-20T04:23:22.377Z,998.37
2022-11-20T04:24:21.100Z,998.46
2022-11-20T04:25:20.116Z,998.41
2022-11-20T04:26:20.095Z,998.44
2022-11-20T04:27:20.344Z,998.44
2022-11-20T04:28:20.047Z,998.45
2022-11-20T04:29:20.757Z,998.46
2022-11-20T04:30:20.055Z,998.43
2022-11-20T04:31:20.053Z,998.44
2022-11-20T04:32:20.009Z,998.41
2022-11-20T04:33:20.243Z,998.43
2022-11-20T04:34:19.979Z,998.43
2022-11-20T04:35:19.988Z,998.44
2022-11-20T04:36:20.268Z,998.41
2022-11-20T04:37:19.958Z,998.44
2022-11-20T04:38:19.944Z,998.50
2022-11-20T04:39:20.812Z,998.48
2022-11-20T04:40:19.917Z,998.49
2022-11-20T04:41:19.945Z,998.49
2022-11-20T04:42:19.918Z,998.43
2022-11-20T04:43:19.888Z,998.46
2022-11-20T04:44:19.864Z,998.42
2022-11-20T04:45:19.871Z,998.45
2022-11-20T04:46:20.163Z,998.41
2022-11-20T04:47:19.849Z,998.45
2022-11-20T04:48:20.145Z,998.43
2022-11-20T04:49:20.277Z,998.46
2022-11-20T04:50:19.828Z,998.42
2022-11-20T04:51:19.828Z,998.45
2022-11-20T04:52:19.806Z,998.43
2022-11-20T04:53:20.118Z,998.39
2022-11-20T04:54:19.754Z,998.38
2022-11-20T04:55:19.765Z,998.43
2022-11-20T04:56:19.733Z,998.44
2022-11-20T04:57:19.765Z,998.39
2022-11-20T04:58:19.738Z,998.38
2022-11-20T04:59:20.365Z,998.44
2022-11-20T05:00:19.681Z,998.39
2022-11-20T05:01:19.712Z,998.42
2022-11-20T05:02:19.662Z,998.43
2022-11-20T05:03:19.662Z,998.41
2022-11-20T05:04:19.953Z,998.37
2022-11-20T05:05:19.640Z,998.40
2022-11-20T05:06:19.652Z,998.44
2022-11-20T05:07:19.690Z,998.42
2022-11-20T05:08:19.602Z,998.42
2022-11-20T05:09:19.914Z,998.44
2022-11-20T05:10:19.881Z,998.42
2022-11-20T05:11:19.599Z,998.43
2022-11-20T05:12:19.553Z,998.42
2022-11-20T05:13:19.569Z,998.44
2022-11-20T05:14:19.869Z,998.46
2022-11-20T05:15:19.549Z,998.51
2022-11-20T05:16:19.525Z,998.53
2022-11-20T05:17:19.532Z,998.52
2022-11-20T05:18:19.486Z,998.57
2022-11-20T05:19:19.909Z,998.55
2022-11-20T05:20:19.792Z,998.54
2022-11-20T05:21:19.463Z,998.54
2022-11-20T05:22:19.444Z,998.54
2022-11-20T05:23:19.443Z,998.52
2022-11-20T05:24:19.439Z,998.55
2022-11-20T05:25:19.422Z,998.58
2022-11-20T05:26:19.604Z,998.53
2022-11-20T05:27:19.440Z,998.50
2022-11-20T05:28:19.365Z,998.52
2022-11-20T05:29:19.943Z,998.50
2022-11-20T05:30:19.370Z,998.51
2022-11-20T05:31:25.096Z,998.48
2022-11-20T05:32:20.643Z,998.54
2022-11-20T05:33:19.349Z,998.51
2022-11-20T05:34:19.322Z,998.53
2022-11-20T05:35:19.295Z,998.52
2022-11-20T05:36:19.276Z,998.53
2022-11-20T05:37:19.613Z,998.52
2022-11-20T05:38:19.256Z,998.55
2022-11-20T05:39:19.721Z,998.52
2022-11-20T05:40:19.262Z,998.52
2022-11-20T05:41:19.239Z,998.51
2022-11-20T05:42:19.414Z,998.51
2022-11-20T05:43:19.233Z,998.50
2022-11-20T05:44:19.187Z,998.46
2022-11-20T05:45:19.214Z,998.45
2022-11-20T05:46:22.283Z,998.49
2022-11-20T05:47:20.475Z,998.46
2022-11-20T05:48:19.136Z,998.48
2022-11-20T05:49:19.644Z,998.50
2022-11-20T05:50:19.144Z,998.51
2022-11-20T05:51:19.117Z,998.47
2022-11-20T05:52:19.131Z,998.47
2022-11-20T05:53:19.124Z,998.48
2022-11-20T05:54:19.387Z,998.52
2022-11-20T05:55:19.097Z,998.48
2022-11-20T05:56:19.051Z,998.45
2022-11-20T05:57:19.059Z,998.48
2022-11-20T05:58:19.026Z,998.48
2022-11-20T05:59:19.286Z,998.48
2022-11-20T06:00:19.365Z,998.45
2022-11-20T06:01:19.066Z,998.42
2022-11-20T06:02:19.071Z,998.39
2022-11-20T06:03:19.256Z,998.39
2022-11-20T06:04:18.984Z,998.39
2022-11-20T06:05:18.957Z,998.38
2022-11-20T06:06:18.936Z,998.36
2022-11-20T06:07:18.981Z,998.36
2022-11-20T06:08:19.229Z,998.34
2022-11-20T06:09:19.314Z,998.40
2022-11-20T06:10:18.916Z,998.40
2022-11-20T06:11:18.888Z,998.39
2022-11-20T06:12:18.869Z,998.38
2022-11-20T06:13:18.876Z,998.36
2022-11-20T06:14:19.176Z,998.39
2022-11-20T06:15:18.866Z,998.40
2022-11-20T06:16:18.820Z,998.50
2022-11-20T06:17:18.830Z,998.52
2022-11-20T06:18:18.829Z,998.48
2022-11-20T06:19:19.384Z,998.45
2022-11-20T06:20:18.806Z,998.46
2022-11-20T06:21:18.777Z,998.48
2022-11-20T06:22:18.781Z,998.38
2022-11-20T06:23:18.758Z,998.37
2022-11-20T06:24:18.980Z,998.34
2022-11-20T06:25:19.043Z,998.44
2022-11-20T06:26:18.719Z,998.32
2022-11-20T06:27:18.739Z,998.43
2022-11-20T06:28:18.717Z,998.44
2022-11-20T06:29:19.090Z,998.45
2022-11-20T06:30:19.006Z,998.48
2022-11-20T06:31:18.662Z,998.44
2022-11-20T06:32:18.667Z,998.43
2022-11-20T06:33:18.693Z,998.47
2022-11-20T06:34:18.956Z,998.44
2022-11-20T06:35:18.649Z,998.45
2022-11-20T06:36:18.592Z,998.43
2022-11-20T06:37:18.648Z,998.50
2022-11-20T06:38:18.607Z,998.47
2022-11-20T06:39:19.068Z,998.51
2022-11-20T06:40:18.579Z,998.47
2022-11-20T06:41:18.560Z,998.53
2022-11-20T06:42:18.558Z,998.51
2022-11-20T06:43:18.578Z,998.49
2022-11-20T06:44:18.839Z,998.48
2022-11-20T06:45:18.568Z,998.50
2022-11-20T06:46:18.560Z,998.52
2022-11-20T06:47:18.489Z,998.53
2022-11-20T06:48:18.506Z,998.57
2022-11-20T06:49:18.942Z,998.56
2022-11-20T06:50:18.465Z,998.55
2022-11-20T06:51:18.442Z,998.57
2022-11-20T06:52:18.439Z,998.54
2022-11-20T06:53:18.423Z,998.58
2022-11-20T06:54:18.734Z,998.59
2022-11-20T06:55:18.393Z,998.60
2022-11-20T06:56:18.389Z,998.58
2022-11-20T06:57:18.390Z,998.61
2022-11-20T06:58:18.412Z,998.55
2022-11-20T06:59:18.371Z,998.53
2022-11-20T07:00:18.524Z,998.56
2022-11-20T07:01:18.726Z,998.58
2022-11-20T07:02:18.312Z,998.56
2022-11-20T07:03:18.329Z,998.53
2022-11-20T07:04:18.301Z,998.53
2022-11-20T07:05:18.291Z,998.55
2022-11-20T07:06:18.254Z,998.57
2022-11-20T07:07:18.278Z,998.61
2022-11-20T07:08:18.254Z,998.55
2022-11-20T07:09:18.252Z,998.56
2022-11-20T07:10:18.281Z,998.59
2022-11-20T07:11:18.195Z,998.54
2022-11-20T07:12:18.201Z,998.62
2022-11-20T07:13:18.415Z,998.56
2022-11-20T07:14:18.211Z,998.55
2022-11-20T07:15:18.154Z,998.54
2022-11-20T07:16:18.468Z,998.57
2022-11-20T07:17:18.163Z,998.60
2022-11-20T07:18:18.133Z,998.54
2022-11-20T07:19:18.407Z,998.59
2022-11-20T07:20:18.108Z,998.63
2022-11-20T07:21:18.109Z,998.63
2022-11-20T07:22:18.086Z,998.64
2022-11-20T07:23:18.093Z,998.63
2022-11-20T07:24:18.297Z,998.63
2022-11-20T07:25:18.037Z,998.59
2022-11-20T07:26:18.048Z,998.65
2022-11-20T07:27:18.042Z,998.64
2022-11-20T07:28:18.016Z,998.67
2022-11-20T07:29:18.022Z,998.68
2022-11-20T07:30:18.237Z,998.68
2022-11-20T07:31:19.573Z,998.71
2022-11-20T07:32:17.975Z,998.71
2022-11-20T07:33:17.966Z,998.76
2022-11-20T07:34:17.964Z,998.76
2022-11-20T07:35:17.958Z,998.74
2022-11-20T07:36:18.240Z,998.81
2022-11-20T07:37:17.935Z,998.80
2022-11-20T07:38:18.206Z,998.82
2022-11-20T07:39:17.878Z,998.77
2022-11-20T07:40:17.878Z,998.79
2022-11-20T07:41:17.858Z,998.77
2022-11-20T07:42:17.857Z,998.81
2022-11-20T07:43:18.174Z,998.85
2022-11-20T07:44:17.865Z,998.77
2022-11-20T07:45:18.090Z,998.78
2022-11-20T07:46:17.819Z,998.74
2022-11-20T07:47:17.789Z,998.82
2022-11-20T07:48:17.825Z,998.74
2022-11-20T07:49:17.796Z,998.77
2022-11-20T07:50:18.105Z,998.82
2022-11-20T07:51:17.749Z,998.82
2022-11-20T07:52:17.749Z,998.89
2022-11-20T07:53:17.757Z,998.77
2022-11-20T07:54:17.755Z,998.77
2022-11-20T07:55:17.710Z,998.78
2022-11-20T07:56:18.039Z,998.76
2022-11-20T07:57:17.729Z,998.74
2022-11-20T07:58:17.689Z,998.73
2022-11-20T07:59:17.690Z,998.73
2022-11-20T08:00:17.660Z,998.74
2022-11-20T08:01:17.750Z,998.75
2022-11-20T08:02:17.937Z,998.82
2022-11-20T08:03:23.184Z,998.80
2022-11-20T08:04:18.610Z,998.83
2022-11-20T08:05:17.592Z,998.80
2022-11-20T08:06:17.790Z,998.84
2022-11-20T08:07:17.644Z,998.83
2022-11-20T08:08:17.607Z,998.82
2022-11-20T08:09:17.552Z,998.81
2022-11-20T08:10:17.567Z,998.80
2022-11-20T08:11:17.548Z,998.76
2022-11-20T08:12:17.540Z,998.76
2022-11-20T08:13:17.810Z,998.75
2022-11-20T08:14:17.503Z,998.76
2022-11-20T08:15:17.498Z,998.73
2022-11-20T08:16:17.507Z,998.70
2022-11-20T08:17:17.452Z,998.70
2022-11-20T08:18:33.273Z,998.70
2022-11-20T08:19:18.844Z,998.69
2022-11-20T08:20:17.460Z,998.71
2022-11-20T08:21:17.437Z,998.68
2022-11-20T08:22:17.411Z,998.70
2022-11-20T08:23:17.682Z,998.72
2022-11-20T08:24:17.392Z,998.72
2022-11-20T08:25:17.362Z,998.70
2022-11-20T08:26:17.397Z,998.66
2022-11-20T08:27:17.369Z,998.65
2022-11-20T08:28:21.255Z,998.62
2022-11-20T08:29:17.563Z,998.71
2022-11-20T08:30:17.329Z,998.64
2022-11-20T08:31:17.321Z,998.68
2022-11-20T08:32:17.329Z,998.65
2022-11-20T08:33:17.272Z,998.68
2022-11-20T08:34:19.221Z,998.69
2022-11-20T08:35:17.484Z,998.63
2022-11-20T08:36:17.279Z,998.67
2022-11-20T08:37:17.243Z,998.69
2022-11-20T08:38:17.481Z,998.66
2022-11-20T08:39:17.231Z,998.68
2022-11-20T08:40:19.794Z,998.72
2022-11-20T08:41:17.183Z,998.64
2022-11-20T08:42:17.185Z,998.66
2022-11-20T08:43:17.181Z,998.61
2022-11-20T08:44:17.511Z,998.57
2022-11-20T08:45:17.182Z,998.55
2022-11-20T08:46:17.176Z,998.59
2022-11-20T08:47:17.153Z,998.60
2022-11-20T08:48:17.134Z,998.61
2022-11-20T08:49:17.084Z,998.53
2022-11-20T08:50:17.115Z,998.56
2022-11-20T08:51:17.106Z,998.57
2022-11-20T08:52:17.120Z,998.58
2022-11-20T08:53:17.046Z,998.59
2022-11-20T08:54:17.069Z,998.57
2022-11-20T08:55:17.052Z,998.62
2022-11-20T08:56:17.347Z,998.60
2022-11-20T08:57:17.017Z,998.61
2022-11-20T08:58:17.006Z,998.66
2022-11-20T08:59:43.473Z,998.64
2022-11-20T09:00:17.989Z,998.62
2022-11-20T09:01:17.013Z,998.61
2022-11-20T09:02:16.976Z,998.61
2022-11-20T09:03:16.927Z,998.67
2022-11-20T09:04:17.234Z,998.68
2022-11-20T09:05:16.935Z,998.68
2022-11-20T09:06:16.906Z,998.66
2022-11-20T09:07:16.912Z,998.68
2022-11-20T09:08:16.888Z,998.65
2022-11-20T09:09:16.884Z,998.61
2022-11-20T09:10:24.120Z,998.65
2022-11-20T09:11:17.863Z,998.65
2022-11-20T09:12:16.845Z,998.66
2022-11-20T09:13:16.844Z,998.69
2022-11-20T09:14:16.842Z,998.73
2022-11-20T09:15:16.811Z,998.66
2022-11-20T09:16:16.817Z,998.72
2022-11-20T09:17:16.796Z,998.75
2022-11-20T09:18:17.005Z,998.76
2022-11-20T09:20:17.776Z,998.63
2022-11-20T09:21:16.797Z,998.67
2022-11-20T09:22:16.730Z,998.63
2022-11-20T09:23:17.016Z,998.62
2022-11-20T09:24:16.701Z,998.56
2022-11-20T09:25:16.688Z,998.60
2022-11-20T09:26:16.706Z,998.61
2022-11-20T09:27:16.686Z,998.66
2022-11-20T09:28:16.677Z,998.67
2022-11-20T09:29:16.682Z,998.69
2022-11-20T09:30:16.656Z,998.68
2022-11-20T09:31:16.636Z,998.63
2022-11-20T09:32:16.667Z,998.62
2022-11-20T09:33:16.617Z,998.59
2022-11-20T09:34:16.616Z,998.60
2022-11-20T09:35:16.798Z,998.54
2022-11-20T09:36:16.561Z,998.51
2022-11-20T09:37:16.541Z,998.48
2022-11-20T09:38:16.538Z,998.49
2022-11-20T09:39:16.521Z,998.49
2022-11-20T09:40:16.546Z,998.44
2022-11-20T09:41:16.747Z,998.45
2022-11-20T09:42:16.520Z,998.46
2022-11-20T09:43:16.471Z,998.39
2022-11-20T09:44:16.480Z,998.42
2022-11-20T09:45:16.472Z,998.38
2022-11-20T09:46:16.781Z,998.43
2022-11-20T09:47:16.450Z,998.37
2022-11-20T09:48:16.422Z,998.37
2022-11-20T09:49:16.712Z,998.36
2022-11-20T09:50:16.431Z,998.38
2022-11-20T09:51:16.385Z,998.38
2022-11-20T09:52:21.860Z,998.32
2022-11-20T09:53:16.399Z,998.27
2022-11-20T09:54:16.382Z,998.29
2022-11-20T09:55:16.344Z,998.28
2022-11-20T09:56:18.327Z,998.24
2022-11-20T09:57:17.960Z,998.28
2022-11-20T09:58:16.314Z,998.27
2022-11-20T09:59:16.284Z,998.31
2022-11-20T10:00:16.298Z,998.31
2022-11-20T10:01:16.377Z,998.32
2022-11-20T10:02:16.286Z,998.30
2022-11-20T10:03:16.254Z,998.34
2022-11-20T10:04:16.288Z,998.30
2022-11-20T10:05:16.215Z,998.29
2022-11-20T10:06:16.222Z,998.27
2022-11-20T10:07:33.009Z,998.28
2022-11-20T10:08:17.588Z,998.28
2022-11-20T10:09:16.201Z,998.27
2022-11-20T10:10:16.201Z,998.31
2022-11-20T10:11:16.148Z,998.26
2022-11-20T10:12:16.173Z,998.22
2022-11-20T10:13:16.420Z,998.23
2022-11-20T10:14:16.355Z,998.22
2022-11-20T10:15:16.125Z,998.18
2022-11-20T10:16:16.135Z,998.27
2022-11-20T10:17:16.112Z,998.25
2022-11-20T10:18:16.132Z,998.24
2022-11-20T10:19:16.082Z,998.23
2022-11-20T10:20:16.060Z,998.19
2022-11-20T10:21:16.053Z,998.17
2022-11-20T10:22:16.353Z,998.23
2022-11-20T10:23:16.034Z,998.23
2022-11-20T10:24:16.098Z,998.22
2022-11-20T10:25:15.987Z,998.23
2022-11-20T10:26:15.988Z,998.19
2022-11-20T10:27:16.009Z,998.20
2022-11-20T10:28:16.015Z,998.19
2022-11-20T10:29:15.964Z,998.12
2022-11-20T10:30:16.097Z,998.08
2022-11-20T10:31:15.944Z,998.09
2022-11-20T10:32:15.945Z,998.05
2022-11-20T10:33:15.946Z,998.10
2022-11-20T10:34:20.979Z,998.09
2022-11-20T10:35:16.905Z,998.03
2022-11-20T10:36:15.890Z,998.04
2022-11-20T10:37:15.876Z,998.05
2022-11-20T10:38:15.860Z,998.00
2022-11-20T10:39:15.856Z,997.95
2022-11-20T10:40:16.166Z,997.94
2022-11-20T10:41:15.818Z,997.92
2022-11-20T10:42:15.847Z,997.95
2022-11-20T10:43:15.837Z,997.97
2022-11-20T10:44:15.781Z,998.00
2022-11-20T10:45:15.758Z,997.98
2022-11-20T10:46:15.761Z,997.98
2022-11-20T10:47:15.758Z,997.97
2022-11-20T10:48:15.743Z,998.02
2022-11-20T10:49:15.957Z,997.98
2022-11-20T10:50:21.835Z,997.96
2022-11-20T10:51:16.993Z,997.98
2022-11-20T10:52:15.719Z,997.93
2022-11-20T10:53:15.902Z,997.95
2022-11-20T10:54:15.691Z,997.96
2022-11-20T10:55:15.652Z,997.99
2022-11-20T10:56:15.643Z,997.96
2022-11-20T10:57:15.622Z,997.94
2022-11-20T10:58:15.943Z,997.94
2022-11-20T10:59:15.592Z,997.89
2022-11-20T11:00:15.656Z,997.88
2022-11-20T11:01:15.665Z,997.92
2022-11-20T11:02:15.574Z,997.84
2022-11-20T11:03:15.580Z,997.85
2022-11-20T11:04:15.582Z,997.87
2022-11-20T11:05:15.524Z,997.88
2022-11-20T11:06:15.804Z,997.91
2022-11-20T11:07:15.547Z,997.86
2022-11-20T11:08:15.531Z,997.86
2022-11-20T11:09:15.520Z,997.88
2022-11-20T11:10:15.585Z,997.84
2022-11-20T11:11:15.793Z,997.86
2022-11-20T11:12:15.502Z,997.79
2022-11-20T11:13:15.760Z,997.75
2022-11-20T11:14:15.471Z,997.70
2022-11-20T11:15:15.414Z,997.71
2022-11-20T11:16:15.415Z,997.71
2022-11-20T11:17:15.386Z,997.63
2022-11-20T11:18:15.717Z,997.66
2022-11-20T11:19:15.702Z,997.63
2022-11-20T11:20:15.393Z,997.60
2022-11-20T11:21:15.345Z,997.61
2022-11-20T11:22:15.344Z,997.59
2022-11-20T11:23:15.362Z,997.53
2022-11-20T11:24:40.350Z,997.57
2022-11-20T11:25:16.341Z,997.56
2022-11-20T11:26:15.314Z,997.55
2022-11-20T11:27:17.637Z,997.53
2022-11-20T11:28:15.468Z,997.52
2022-11-20T11:29:15.295Z,997.50
2022-11-20T11:30:15.260Z,997.50
2022-11-20T11:31:15.438Z,997.47
2022-11-20T11:32:15.220Z,997.44
2022-11-20T11:33:15.227Z,997.41
2022-11-20T11:34:15.227Z,997.39
2022-11-20T11:35:15.198Z,997.37
2022-11-20T11:36:15.497Z,997.37
2022-11-20T11:37:15.177Z,997.34
2022-11-20T11:38:15.149Z,997.36
2022-11-20T11:39:15.189Z,997.29
2022-11-20T11:40:30.344Z,997.31
2022-11-20T11:41:16.424Z,997.30
2022-11-20T11:42:15.135Z,997.28
2022-11-20T11:43:15.111Z,997.22
2022-11-20T11:44:15.149Z,997.22
2022-11-20T11:45:15.079Z,997.15
2022-11-20T11:46:15.088Z,997.16
2022-11-20T11:47:15.286Z,997.16
2022-11-20T11:48:15.040Z,997.17
2022-11-20T11:49:15.040Z,997.21
2022-11-20T11:50:15.248Z,997.21
2022-11-20T11:51:15.045Z,997.17
2022-11-20T11:52:15.002Z,997.19
2022-11-20T11:53:15.021Z,997.19
2022-11-20T11:54:14.979Z,997.12
2022-11-20T11:55:14.999Z,997.10
2022-11-20T11:56:15.198Z,997.10
2022-11-20T11:57:15.000Z,997.02
2022-11-20T11:58:15.230Z,996.99
2022-11-20T11:59:14.949Z,997.02
2022-11-20T12:00:14.895Z,996.96
2022-11-20T12:01:14.931Z,996.99
2022-11-20T12:02:15.075Z,996.99
2022-11-20T12:03:14.908Z,996.99
2022-11-20T12:04:15.164Z,996.96
2022-11-20T12:05:14.853Z,996.95
2022-11-20T12:06:14.860Z,996.90
2022-11-20T12:07:44.337Z,996.92
2022-11-20T12:08:15.847Z,996.84
2022-11-20T12:09:15.071Z,996.90
2022-11-20T12:10:14.812Z,996.91
2022-11-20T12:11:14.811Z,996.87
2022-11-20T12:12:14.791Z,996.87
2022-11-20T12:13:14.913Z,996.90
2022-11-20T12:14:14.735Z,996.91
2022-11-20T12:15:14.963Z,996.86
2022-11-20T12:16:14.743Z,996.84
2022-11-20T12:17:14.721Z,996.83
2022-11-20T12:18:14.731Z,996.76
2022-11-20T12:19:14.694Z,996.73
2022-11-20T12:20:14.865Z,996.71
2022-11-20T12:21:14.694Z,996.64
2022-11-20T12:22:14.645Z,996.65
2022-11-20T12:23:14.676Z,996.67
2022-11-20T12:24:14.673Z,996.61
2022-11-20T12:25:14.952Z,996.63
2022-11-20T12:26:14.597Z,996.63
2022-11-20T12:27:14.634Z,996.60
2022-11-20T12:28:14.867Z,996.67
2022-11-20T12:29:14.604Z,996.68